AirNav   Pilot Hours Calculator
 
 1130 users online  

08TA Rancho Del Lago Heliport
Fischer, Texas, USA

GOING TO FISCHER?


FAA INFORMATION EFFECTIVE 22 APRIL 2021

Location

FAA Identifier: 08TA
Lat/Long: 29-57-06.7730N 098-13-28.0430W
29-57.112883N 098-13.467383W
29.9518814,-98.2244564
(estimated)
Elevation: 1208 ft. / 368 m (estimated)
Variation: 07E (1985)
From city: 3 miles SE of FISCHER, TX
Time zone: UTC -5 (UTC -6 during Standard Time)
Zip code: 78623

Heliport Operations

Heliport use: Private use. Permission required prior to landing
Activation date: 02/1982
Control tower: no
ARTCC: HOUSTON CENTER
FSS: SAN ANGELO FLIGHT SERVICE STATION
Attendance: UNATNDD
Wind indicator: yes
Segmented circle: no

Heliport Communications

WX ASOS at BAZ (18 nm SE): 119.325 (830-629-7979)
WX AWOS-3PT at HYI (19 nm E): PHONE 512-353-8005

Nearby radio navigation aids

VOR radial/distance  VOR name  Freq  Var
SATr026/22.2SAN ANTONIO VORTAC116.8008E
RNDr002/26.2RANDOLPH VORTAC112.3005E
STVr113/29.3STONEWALL VORTAC113.8008E

 
NDB name  Hdg/Dist  Freq  Var  ID
GARYS261/14.327207ERU .-. ..-

Heliport Services

Runway Information

Helipad H1

Dimensions: 200 x 100 ft. / 61 x 30 m
Surface: turf
Latitude: 29-57.112833N
Longitude: 098-13.467333W
Elevation: 1208.0 ft.
Traffic pattern: leftleft

Heliport Ownership and Management from official FAA records

Ownership: Privately-owned
Owner: LEE R ROPER
BLANCO STAR ROUTE 55
SAN MARCOS, TX 78666
Phone 512-935-2444
Manager: ED GOLDBRANSON
BLANCO STAR ROUTE 55
SAN MARCOS, TX 78666
Phone 512-935-2444

Additional Remarks

FOR CD CTC SAN ANTONIO APCH AT 210-805-5516.

Instrument Procedures

There are no published instrument procedures at 08TA.

Some nearby airports with instrument procedures:

KBAZ - New Braunfels Regional Airport (18 nm SE)
KHYI - San Marcos Regional Airport (19 nm E)
KRND - Randolph Air Force Base (26 nm S)
3R9 - Lakeway Airpark (27 nm NE)
5C1 - Boerne Stage Field Airport (28 nm SW)
 
Loc | Ops | Rwys | IFR | FBO | Links
Com | Nav | Svcs | Stats | Notes
Area around 08TA (Rancho Del Lago Heliport)
 
Road maps at: MapQuest Bing Google
 
Aerial photo
No photo
 
Sectional chart

 
Airport distance calculator
Flying to Rancho Del Lago Heliport? Find the distance to fly.

From to 08TA

Sunrise and sunset
Times for 15-May-2021
 Local
(UTC-5)
 Zulu
(UTC)
Morning civil twilight06:1411:14
Sunrise06:4111:41
Sunset20:1801:18
Evening civil twilight20:4401:44

Current date and time
Zulu (UTC)  15-May-2021 19:37:24
Local (UTC-5)  15-May-2021 14:37:24
 
METAR
KBAZ 
17nm SE 
151851Z 13008KT 10SM -RA FEW030 BKN044 OVC085 24/20 A3004 RMK AO2 RAB27 SLP167 P0000 T02390200
KHYI 
19nm E 
151907Z 14009KT 10SM SCT027 BKN044 BKN050 25/20 A3006 RMK AO2 PNO $
KRND 
26nm S 
151802Z AUTO 13008KT 10SM -DZ SCT016 BKN100 22/21 A3006 RMK AO2 DZB02 SLP174
K5C1 
28nm SW 
151915Z AUTO 13005KT 10SM BKN009 BKN014 OVC019 19/19 A3006 RMK AO1
KSAT 
28nm SW 
151851Z 11010KT 9SM -RA SCT019 BKN095 OVC110 22/20 A3005 RMK AO2 SLP162 P0004 T02170200
KSEQ 
28nm SE 
151858Z AUTO 13006KT 8SM BKN030 BKN038 OVC110 24/19 A3008 RMK AO2 LTG DSNT S AND W PRESFR SLP183
TAF
NOTAMs
Click for the latest NOTAMs
NOTAMs are issued by the DoD/FAA and will open in a separate window not controlled by AirNav.

 

 
 

Would you like to see your business listed on this page?

 If your business provides an interesting product or service to pilots, flight crews, aircraft, or users of the Rancho Del Lago Heliport, you should consider listing it here.  To start the listing process, click on the button below
 
Add a business
 

Other Pages about Rancho Del Lago Heliport

Update a link
 
Copyright © AirNav, LLC. All rights reserved. Privacy Policy  Contact